createdAt,value
2019-02-15T00:00:31.230Z,85.51
2019-02-15T00:05:33.009Z,85.53
2019-02-15T00:10:34.569Z,85.65
2019-02-15T00:15:36.521Z,85.50
2019-02-15T00:20:48.945Z,85.35
2019-02-15T00:25:50.494Z,85.43
2019-02-15T00:30:52.320Z,85.24
2019-02-15T00:35:53.989Z,85.41
2019-02-15T00:40:55.697Z,85.31
2019-02-15T00:46:14.117Z,85.36
2019-02-15T00:51:17.613Z,85.28
2019-02-15T00:56:23.920Z,85.29
2019-02-15T01:01:43.440Z,85.26
2019-02-15T01:06:46.898Z,85.18
2019-02-15T01:11:50.496Z,85.10
2019-02-15T01:16:52.292Z,85.10
2019-02-15T01:21:53.986Z,84.99
2019-02-15T01:26:57.441Z,85.12
2019-02-15T01:32:08.194Z,85.06
2019-02-15T01:37:14.530Z,84.91
2019-02-15T01:42:17.994Z,85.00
2019-02-15T01:47:20.108Z,84.99
2019-02-15T01:52:21.662Z,85.16
2019-02-15T01:57:23.275Z,85.24
2019-02-15T02:02:26.729Z,85.27
2019-02-15T02:07:28.526Z,85.38
2019-02-15T02:12:30.128Z,85.67
2019-02-15T02:17:31.874Z,85.65
2019-02-15T02:22:33.433Z,85.49
2019-02-15T02:27:35.054Z,85.65
2019-02-15T02:32:36.626Z,85.76
2019-02-15T02:37:38.289Z,85.90
2019-02-15T02:42:39.864Z,85.88
2019-02-15T02:47:41.463Z,85.88
2019-02-15T02:52:45.997Z,85.93
2019-02-15T02:57:47.649Z,85.97
2019-02-15T03:02:49.206Z,86.09
2019-02-15T03:07:52.291Z,85.88
2019-02-15T03:12:53.945Z,85.91
2019-02-15T03:17:55.578Z,85.87
2019-02-15T03:22:57.133Z,85.76
2019-02-15T03:27:58.755Z,85.81
2019-02-15T03:33:00.400Z,85.64
2019-02-15T03:38:07.175Z,85.64
2019-02-15T03:43:08.930Z,85.60
2019-02-15T03:48:10.488Z,85.54
2019-02-15T03:53:12.050Z,85.69
2019-02-15T03:58:13.751Z,85.53
2019-02-15T04:03:15.511Z,85.71
2019-02-15T04:08:17.059Z,85.63
2019-02-15T04:13:18.773Z,85.51
2019-02-15T04:18:23.426Z,85.53
2019-02-15T04:23:24.988Z,85.33
2019-02-15T04:28:26.590Z,85.36
2019-02-15T04:33:28.190Z,85.08
2019-02-15T04:38:29.962Z,85.06
2019-02-15T04:43:31.556Z,85.09
2019-02-15T04:48:33.109Z,85.22
2019-02-15T04:53:34.669Z,84.86
2019-02-15T04:58:36.292Z,84.44
2019-02-15T05:03:37.853Z,84.41
2019-02-15T05:08:39.416Z,84.37
2019-02-15T05:13:41.338Z,84.27
2019-02-15T05:18:43.061Z,83.90
2019-02-15T05:23:44.612Z,83.31
2019-02-15T05:28:46.219Z,83.42
2019-02-15T05:33:47.855Z,83.31
2019-02-15T05:38:49.499Z,83.37
2019-02-15T05:43:52.173Z,83.55
2019-02-15T05:48:53.730Z,83.77
2019-02-15T05:53:55.281Z,83.37
2019-02-15T05:58:57.209Z,83.01
2019-02-15T06:03:58.761Z,82.68
2019-02-15T06:09:00.354Z,82.70
2019-02-15T06:14:01.966Z,82.55
2019-02-15T06:19:03.567Z,82.48
2019-02-15T06:24:05.122Z,82.65
2019-02-15T06:29:06.738Z,82.58
2019-02-15T06:34:08.373Z,82.89
2019-02-15T06:39:09.932Z,83.14
2019-02-15T06:44:12.250Z,83.22
2019-02-15T06:49:13.801Z,83.37
2019-02-15T06:54:15.364Z,83.31
2019-02-15T06:59:16.924Z,83.19
2019-02-15T07:04:20.396Z,83.25
2019-02-15T07:09:21.958Z,83.34
2019-02-15T07:14:23.762Z,83.25
2019-02-15T07:19:25.541Z,83.30
2019-02-15T07:24:27.106Z,83.20
2019-02-15T07:29:28.957Z,83.32
2019-02-15T07:34:30.575Z,83.47
2019-02-15T07:39:32.208Z,83.58
2019-02-15T07:44:33.765Z,83.66
2019-02-15T07:49:35.325Z,83.83
2019-02-15T07:54:36.926Z,83.87
2019-02-15T07:59:38.589Z,83.97
2019-02-15T08:04:40.505Z,83.94
2019-02-15T08:09:42.101Z,83.79
2019-02-15T08:14:43.833Z,83.66
2019-02-15T08:19:45.562Z,83.65
2019-02-15T08:24:47.428Z,83.84
2019-02-15T08:29:48.984Z,84.02
2019-02-15T08:34:50.541Z,84.22
2019-02-15T08:39:52.142Z,84.53
2019-02-15T08:44:53.857Z,83.93
2019-02-15T08:49:55.434Z,83.78
2019-02-15T08:54:56.996Z,83.69
2019-02-15T08:59:58.560Z,83.30
2019-02-15T09:05:01.875Z,83.11
2019-02-15T09:10:10.345Z,82.83
2019-02-15T09:15:16.730Z,81.86
2019-02-15T09:20:18.460Z,81.78
2019-02-15T09:25:20.044Z,81.08
2019-02-15T09:30:21.608Z,79.73
2019-02-15T09:35:23.197Z,80.20
2019-02-15T09:40:24.815Z,78.77
2019-02-15T09:45:26.374Z,80.37
2019-02-15T09:50:27.944Z,78.21
2019-02-15T09:55:29.518Z,77.14
2019-02-15T10:00:31.078Z,74.83
2019-02-15T10:05:32.705Z,74.18
2019-02-15T10:10:34.294Z,75.45
2019-02-15T10:15:35.849Z,72.59
2019-02-15T10:20:37.546Z,72.49
2019-02-15T10:25:39.114Z,73.13
2019-02-15T10:30:40.776Z,72.89
2019-02-15T10:35:42.585Z,72.37
2019-02-15T10:40:44.187Z,71.46
2019-02-15T10:45:45.838Z,70.38
2019-02-15T10:50:47.504Z,69.82
2019-02-15T10:55:49.218Z,67.24
2019-02-15T11:00:50.770Z,65.52
2019-02-15T11:05:52.525Z,65.64
2019-02-15T11:10:54.119Z,63.15
2019-02-15T11:15:56.006Z,59.72
2019-02-15T11:20:57.664Z,60.96
2019-02-15T11:25:59.358Z,58.62
2019-02-15T11:31:00.929Z,58.35
2019-02-15T11:36:02.831Z,59.33
2019-02-15T11:41:10.975Z,60.64
2019-02-15T11:46:07.979Z,59.45
2019-02-15T11:51:09.681Z,52.58
2019-02-15T11:56:11.281Z,53.73
2019-02-15T12:01:12.850Z,53.23
2019-02-15T12:06:14.510Z,53.08
2019-02-15T12:11:16.066Z,51.06
2019-02-15T12:16:17.654Z,51.49
2019-02-15T12:21:19.421Z,50.32
2019-02-15T12:26:21.026Z,50.50
2019-02-15T12:31:22.608Z,46.88
2019-02-15T12:36:24.228Z,46.76
2019-02-15T12:41:25.783Z,45.17
2019-02-15T12:46:27.458Z,46.46
2019-02-15T12:51:32.242Z,45.99
2019-02-15T12:56:33.843Z,47.40
2019-02-15T13:01:35.511Z,48.34
2019-02-15T13:06:37.173Z,50.22
2019-02-15T13:11:39.843Z,47.69
2019-02-15T13:16:41.411Z,46.36
2019-02-15T13:21:43.030Z,45.07
2019-02-15T13:26:44.633Z,43.64
2019-02-15T13:31:46.314Z,46.76
2019-02-15T13:36:47.977Z,47.36
2019-02-15T13:41:49.717Z,46.43
2019-02-15T13:46:51.383Z,46.28
2019-02-15T13:51:52.942Z,47.46
2019-02-15T13:56:54.552Z,49.00
2019-02-15T14:01:56.232Z,48.23
2019-02-15T14:06:57.941Z,47.11
2019-02-15T14:11:59.518Z,47.54
2019-02-15T14:17:01.106Z,49.41
2019-02-15T14:22:03.943Z,48.31
2019-02-15T14:27:05.528Z,48.82
2019-02-15T14:32:07.119Z,48.62
2019-02-15T14:37:09.009Z,49.05
2019-02-15T14:42:10.586Z,49.92
2019-02-15T14:47:12.150Z,51.41
2019-02-15T14:52:13.723Z,50.90
2019-02-15T14:57:15.292Z,50.42
2019-02-15T15:02:16.904Z,51.36
2019-02-15T15:07:18.533Z,51.86
2019-02-15T15:12:21.193Z,52.36
2019-02-15T15:17:22.767Z,53.38
2019-02-15T15:22:24.417Z,53.56
2019-02-15T15:27:25.978Z,54.94
2019-02-15T15:32:27.830Z,56.01
2019-02-15T15:37:29.938Z,56.64
2019-02-15T15:42:31.568Z,56.92
2019-02-15T15:47:33.359Z,57.24
2019-02-15T15:52:35.322Z,58.26
2019-02-15T15:57:37.043Z,58.48
2019-02-15T16:02:38.611Z,59.30
2019-02-15T16:07:40.454Z,59.10
2019-02-15T16:12:42.012Z,59.34
2019-02-15T16:17:43.579Z,59.40
2019-02-15T16:22:45.203Z,59.71
2019-02-15T16:27:46.759Z,59.92
2019-02-15T16:32:48.314Z,60.27
2019-02-15T16:37:49.952Z,60.26
2019-02-15T16:42:51.571Z,60.41
2019-02-15T16:47:53.175Z,61.08
2019-02-15T16:52:54.738Z,61.68
2019-02-15T16:57:56.309Z,62.42
2019-02-15T17:02:57.896Z,63.03
2019-02-15T17:07:59.466Z,63.13
2019-02-15T17:13:01.085Z,63.22
2019-02-15T17:18:02.714Z,63.29
2019-02-15T17:23:04.395Z,63.25
2019-02-15T17:28:05.964Z,63.38
2019-02-15T17:33:07.530Z,63.24
2019-02-15T17:38:09.333Z,63.21
2019-02-15T17:43:11.759Z,62.80
2019-02-15T17:48:13.385Z,62.76
2019-02-15T17:53:14.962Z,62.54
2019-02-15T17:58:16.635Z,62.10
2019-02-15T18:03:18.203Z,61.74
2019-02-15T18:08:19.763Z,61.61
2019-02-15T18:13:21.382Z,61.62
2019-02-15T18:18:24.079Z,61.58
2019-02-15T18:23:25.807Z,61.21
2019-02-15T18:28:27.648Z,61.22
2019-02-15T18:33:29.213Z,61.19
2019-02-15T18:38:30.806Z,60.52
2019-02-15T18:43:32.375Z,60.36
2019-02-15T18:48:33.970Z,60.32
2019-02-15T18:53:35.591Z,60.17
2019-02-15T18:58:37.151Z,60.10
2019-02-15T19:03:39.126Z,59.95
2019-02-15T19:08:40.727Z,59.87
2019-02-15T19:13:42.334Z,59.86
2019-02-15T19:18:43.917Z,59.68
2019-02-15T19:23:45.729Z,59.82
2019-02-15T19:28:49.203Z,59.62
2019-02-15T19:33:50.882Z,59.44
2019-02-15T19:38:52.442Z,59.53
2019-02-15T19:43:54.252Z,59.11
2019-02-15T19:48:56.133Z,58.79
2019-02-15T19:53:58.317Z,58.88
2019-02-15T19:59:00.126Z,58.38
2019-02-15T20:04:01.725Z,58.52
2019-02-15T20:09:05.037Z,58.39
2019-02-15T20:14:08.114Z,58.51
2019-02-15T20:19:09.690Z,58.81
2019-02-15T20:24:11.418Z,58.95
2019-02-15T20:29:13.601Z,59.29
2019-02-15T20:34:15.186Z,59.92
2019-02-15T20:39:16.766Z,59.79
2019-02-15T20:44:20.456Z,60.15
2019-02-15T20:49:22.028Z,60.43
2019-02-15T20:54:23.640Z,60.29
2019-02-15T20:59:25.203Z,60.18
2019-02-15T21:04:26.764Z,60.22
2019-02-15T21:09:28.505Z,60.23
2019-02-15T21:14:30.080Z,60.64
2019-02-15T21:19:31.692Z,60.49
2019-02-15T21:24:33.341Z,60.46
2019-02-15T21:29:34.975Z,60.49
2019-02-15T21:34:36.537Z,60.70
2019-02-15T21:39:38.104Z,60.81
2019-02-15T21:44:39.681Z,60.76
2019-02-15T21:49:41.260Z,60.54
2019-02-15T21:54:42.875Z,60.24
2019-02-15T21:59:44.466Z,60.16
2019-02-15T22:04:47.130Z,59.98
2019-02-15T22:09:49.937Z,60.38
2019-02-15T22:14:51.496Z,60.12
2019-02-15T22:19:53.168Z,60.35
2019-02-15T22:24:54.825Z,60.60
2019-02-15T22:29:56.461Z,60.64
2019-02-15T22:34:58.192Z,60.73
2019-02-15T22:40:23.809Z,60.54
2019-02-15T22:45:25.382Z,60.54
2019-02-15T22:50:35.350Z,60.12
2019-02-15T22:55:30.406Z,60.10
2019-02-15T23:00:56.632Z,59.95
2019-02-15T23:05:58.701Z,60.02
2019-02-15T23:11:00.362Z,60.11
2019-02-15T23:16:02.037Z,59.88
2019-02-15T23:21:03.806Z,59.75
2019-02-15T23:26:06.588Z,59.73
2019-02-15T23:31:08.659Z,59.77
2019-02-15T23:36:10.227Z,59.47
2019-02-15T23:41:11.845Z,59.42
2019-02-15T23:46:13.438Z,59.30
2019-02-15T23:51:15.006Z,59.32
2019-02-15T23:56:16.572Z,59.41
